Latest Weather Observations for Norseman Airport

IDW60801

Issued at 1:03 pm WST Thursday 21 September 2017 (issued every 30 minutes, with the page automatically refreshed every 10 minutes)

About weather observations | Map of weather stations | Latest weather observations for WA | Other Formats
Station Details ID: 012009 Name: NORSEMAN AERO Lat: -32.21 Lon: 121.75 Height: 262.5 m
Data from the previous 72 hours. | See also: Recent months at Norseman Airport
Date/Time
WST
Temp
°C
App
Temp
°C
Dew
Point
°C
Rel
Hum
%
Delta-T
°C
Wind Press
QNH
hPa
Press
MSL
hPa
Rain since
9am
mm
Dir  Spd
km/h
Gust
km/h
Spd
kts
Gust
kts
21/01:00pm 29.4 19.6 5.5 22 12.7 NNW 46 69 25 37 1002.5 1002.2 0.0
21/12:44pm 29.4 19.6 5.5 22 12.7 NNW 46 69 25 37 1002.8 1002.5 0.0
21/12:30pm 28.9 19.8 5.7 23 12.3 NW 43 57 23 31 1003.3 1002.9 0.0
21/12:14pm 29.6 20.6 6.3 23 12.5 NW 43 61 23 33 1003.8 1003.5 0.0
21/12:00pm 28.0 18.6 7.3 27 11.2 NNW 46 61 25 33 1004.0 1003.7 0.0
21/11:47am 27.7 19.9 8.1 29 10.7 NW 39 57 21 31 1004.4 1004.1 0.0
21/11:30am 27.7 19.1 8.1 29 10.7 NW 43 56 23 30 1004.8 1004.5 0.0
21/11:03am 27.1 19.4 8.5 31 10.2 NW 39 63 21 34 1005.5 1005.2 0.0
21/11:00am 27.3 19.6 8.7 31 10.3 NNW 39 50 21 27 1005.5 1005.2 0.0
21/10:30am 24.5 17.3 9.3 38 8.4 NNW 37 57 20 31 1006.1 1005.8 0.0
21/10:20am 25.4 19.0 9.3 36 8.9 NNW 33 57 18 31 1006.1 1005.8 0.0
21/10:00am 24.6 18.5 9.7 39 8.3 NNW 32 44 17 24 1006.7 1006.5 0.0
21/09:30am 22.2 17.0 10.4 47 6.5 N 28 35 15 19 1007.4 1007.1 0.0
21/09:00am 20.1 15.0 10.5 54 5.3 N 28 35 15 19 1008.1 1007.8 0.0
21/08:30am 18.4 14.4 10.5 60 4.3 N 22 30 12 16 1008.7 1008.4 0.0
21/08:00am 16.5 11.8 9.4 63 3.7 N 24 28 13 15 1009.3 1009.0 0.0
21/07:30am 15.4 10.9 8.6 64 3.5 N 22 28 12 15 1009.5 1009.2 0.0
21/07:00am 14.2 10.3 8.6 69 2.9 NNE 19 22 10 12 1009.8 1009.5 0.0
21/06:30am 13.4 9.4 8.3 71 2.6 N 19 22 10 12 1010.0 1009.8 0.0
21/06:00am 13.2 9.0 8.3 72 2.5 N 20 24 11 13 1009.9 1009.7 0.0
21/05:30am 13.5 9.3 8.4 71 2.6 NNE 20 24 11 13 1009.8 1009.5 0.0
21/05:00am 13.6 9.7 8.7 72 2.5 N 19 22 10 12 1010.0 1009.8 0.0
21/04:30am 11.3 9.2 8.2 81 1.5 NNE 9 13 5 7 1010.0 1009.8 0.0
21/04:00am 11.5 9.9 8.0 79 1.7 NNE 6 7 3 4 1010.2 1010.0 0.0
21/03:30am 12.7 10.2 8.4 75 2.2 NNE 11 13 6 7 1010.1 1009.9 0.0
21/03:00am 13.1 10.4 8.8 75 2.2 NNE 13 15 7 8 1010.3 1010.1 0.0
21/02:30am 13.7 10.7 9.2 74 2.3 NNE 15 19 8 10 1010.2 1010.0 0.0
21/02:00am 14.4 12.9 9.0 70 2.8 NNW 7 11 4 6 1010.6 1010.4 0.0
21/01:30am 12.3 10.4 9.0 80 1.7 NNE 9 9 5 5 1010.9 1010.7 0.0
21/01:00am 12.3 12.1 9.1 81 1.6 CALM 0 0 0 0 1011.6 1011.3 0.0
21/12:30am 13.2 11.7 9.3 77 2.0 WSW 7 9 4 5 1012.1 1011.8 0.0
21/12:00am 11.8 10.3 9.2 84 1.3 SW 7 9 4 5 1012.2 1011.9 0.0
 
Date/Time
WST
Temp
°C
App
Temp
°C
Dew
Point
°C
Rel
Hum
%
Delta-T
°C
Wind Press
QNH
hPa
Press
MSL
hPa
Rain since
9am
mm
Dir  Spd
km/h
Gust
km/h
Spd
kts
Gust
kts
20/11:30pm 12.6 11.3 10.1 85 1.3 SW 7 9 4 5 1012.4 1012.1 0.0
20/11:00pm 12.2 12.5 10.8 91 0.7 CALM 0 0 0 0 1012.5 1012.2 0.0
20/10:30pm 12.6 12.4 10.3 86 1.2 SSW 2 6 1 3 1012.6 1012.3 0.0
20/10:00pm 14.3 13.3 11.1 81 1.7 WSW 7 11 4 6 1012.8 1012.5 0.0
20/09:30pm 14.1 13.9 11.8 86 1.3 WNW 4 11 2 6 1012.9 1012.6 0.0
20/09:00pm 14.1 14.5 11.4 84 1.5 CALM 0 0 0 0 1012.7 1012.4 0.0
20/08:30pm 14.9 15.6 12.2 84 1.5 CALM 0 0 0 0 1012.7 1012.4 0.0
20/08:00pm 15.0 15.8 12.5 85 1.4 CALM 0 0 0 0 1012.7 1012.4 0.0
20/07:30pm 15.1 15.5 12.4 84 1.5 ENE 2 6 1 3 1012.6 1012.3 0.0
20/07:00pm 15.4 16.1 12.2 81 1.8 CALM 0 4 0 2 1012.4 1012.1 0.0
20/06:30pm 16.9 17.7 12.4 75 2.5 CALM 0 0 0 0 1012.1 1011.8 0.0
20/06:00pm 19.1 18.9 13.1 68 3.4 WNW 6 7 3 4 1011.9 1011.6 0.0
20/05:30pm 19.9 19.1 12.9 64 4.0 W 9 11 5 6 1011.7 1011.4 0.0
20/05:00pm 20.2 19.3 13.6 66 3.8 W 11 15 6 8 1011.6 1011.3 0.0
20/04:30pm 19.4 17.8 14.0 71 3.1 W 15 17 8 9 1011.6 1011.3 0.0
20/04:00pm 18.8 15.1 13.9 73 2.8 WSW 26 39 14 21 1011.7 1011.4 0.0
20/03:30pm 21.3 18.8 12.2 56 5.2 W 17 22 9 12 1011.3 1011.0 0.0
20/03:00pm 20.9 17.2 12.6 59 4.8 SW 24 33 13 18 1011.3 1011.0 0.0
20/02:30pm 21.6 18.7 12.2 55 5.4 WSW 19 32 10 17 1011.0 1010.8 0.0
20/02:00pm 21.1 17.4 12.8 59 4.8 SW 24 32 13 17 1011.3 1011.0 0.0
20/01:30pm 21.6 16.0 11.6 53 5.6 WSW 32 44 17 24 1011.3 1011.0 0.0
20/01:00pm 21.6 16.3 11.3 52 5.8 W 30 41 16 22 1011.4 1011.1 0.0
20/12:30pm 22.3 17.5 11.7 51 6.0 W 28 37 15 20 1011.5 1011.2 0.0
20/12:00pm 22.2 16.3 11.3 50 6.1 W 33 44 18 24 1011.6 1011.3 0.0
20/11:30am 22.4 17.5 11.2 49 6.3 WNW 28 37 15 20 1011.8 1011.5 0.0
20/11:00am 22.3 17.7 11.1 49 6.3 NW 26 33 14 18 1012.2 1011.9 0.0
20/10:30am 21.5 18.2 10.9 51 5.9 WNW 19 32 10 17 1012.6 1012.3 0.0
20/10:00am 20.1 17.7 11.3 57 4.9 W 15 24 8 13 1013.0 1012.7 0.0
20/09:30am 18.6 17.3 11.2 62 4.1 NNW 9 20 5 11 1013.3 1013.1 0.0
20/09:00am 18.0 16.1 11.8 67 3.4 N 13 17 7 9 1013.4 1013.2 0.0
20/08:30am 16.4 13.9 12.4 77 2.2 N 17 20 9 11 1013.5 1013.3 0.0
20/08:00am 15.4 12.9 12.2 81 1.8 N 17 20 9 11 1013.4 1013.2 0.0
20/07:30am 14.4 12.0 12.6 89 1.0 N 17 20 9 11 1013.1 1012.8 0.0
20/07:00am 12.8 11.8 12.2 96 0.3 NNE 9 11 5 6 1013.2 1013.0 0.0
20/06:30am 12.4 11.8 12.4 100 0.0 N 7 11 4 6 1013.0 1012.7 0.0
20/06:00am 11.4 11.8 11.2 99 0.1 CALM 0 0 0 0 1012.9 1012.6 0.0
20/05:30am 11.3 11.7 11.1 99 0.1 CALM 0 0 0 0 1012.8 1012.5 0.0
20/05:00am 12.0 12.6 11.8 99 0.1 CALM 0 6 0 3 1012.7 1012.4 0.0
20/04:30am 12.1 11.3 11.8 98 0.2 SSW 7 9 4 5 1012.6 1012.3 0.0
20/04:00am 12.3 10.9 9.7 84 1.3 SW 7 9 4 5 1012.5 1012.2 0.0
20/03:30am 11.4 9.5 9.0 85 1.2 S 9 9 5 5 1012.3 1012.0 0.0
20/03:00am 10.8 8.5 7.3 79 1.7 S 9 9 5 5 1012.1 1011.8 0.0
20/02:30am 10.9 8.6 7.4 79 1.7 SSW 9 11 5 6 1012.3 1012.0 0.0
20/02:00am 11.4 9.0 6.9 74 2.2 SSW 9 9 5 5 1012.4 1012.1 0.0
20/01:30am 12.6 10.4 7.7 72 2.4 SSW 9 9 5 5 1012.5 1012.2 0.0
20/01:00am 13.5 11.4 8.1 70 2.7 SSW 9 11 5 6 1012.7 1012.4 0.0
20/12:30am 13.9 11.7 7.9 67 3.0 SSW 9 11 5 6 1013.0 1012.7 0.0
20/12:00am 15.8 14.0 9.5 66 3.3 S 9 13 5 7 1012.9 1012.6 0.0
 
Date/Time
WST
Temp
°C
App
Temp
°C
Dew
Point
°C
Rel
Hum
%
Delta-T
°C
Wind Press
QNH
hPa
Press
MSL
hPa
Rain since
9am
mm
Dir  Spd
km/h
Gust
km/h
Spd
kts
Gust
kts
19/11:30pm 16.8 15.3 9.2 61 4.0 S 7 11 4 6 1013.0 1012.7 0.0
19/11:00pm 18.0 15.0 9.1 56 4.7 S 15 28 8 15 1012.9 1012.6 0.0
19/10:30pm 18.3 14.8 7.4 49 5.6 S 15 20 8 11 1012.8 1012.5 0.0
19/10:00pm 18.8 16.2 7.9 49 5.7 S 11 17 6 9 1013.0 1012.7 0.0
19/09:30pm 19.7 16.4 8.1 47 6.1 SSW 15 19 8 10 1012.6 1012.3 0.0
19/09:00pm 21.0 18.1 8.0 43 6.9 S 13 19 7 10 1012.5 1012.2 0.0
19/08:30pm 22.3 19.3 7.7 39 7.7 SSE 13 17 7 9 1012.1 1011.8 0.0
19/08:00pm 24.8 19.7 6.1 30 9.7 SW 22 33 12 18 1011.7 1011.4 0.0
19/07:30pm 26.1 20.3 6.2 28 10.5 SW 26 37 14 20 1011.4 1011.1 0.0
19/07:00pm 27.4 20.1 5.6 25 11.4 SW 33 48 18 26 1010.6 1010.4 0.0
19/06:30pm 29.2 22.3 2.5 18 13.4 WSW 28 33 15 18 1009.6 1009.3 0.0
19/06:00pm 30.4 23.4 1.8 16 14.3 WSW 28 41 15 22 1009.1 1008.8 0.0
19/05:30pm 32.0 23.9 1.2 14 15.4 W 33 43 18 23 1008.5 1008.2 0.0
19/05:12pm 32.9 24.8 0.9 13 16.0 W 33 52 18 28 1008.4 1008.1 0.0
19/05:08pm 33.3 26.2 1.2 13 16.2 WNW 28 46 15 25 1008.3 1008.0 0.0
19/05:00pm 33.5 26.4 1.3 13 16.3 WNW 28 35 15 19 1008.3 1008.0 0.0
19/04:30pm 33.6 25.2 -0.9 11 16.8 WNW 33 46 18 25 1008.2 1007.9 0.0
19/04:16pm 34.1 26.7 -0.5 11 17.0 NW 28 54 15 29 1008.1 1007.8 0.0
19/04:00pm 33.6 24.5 -0.9 11 16.9 NW 37 52 20 28 1008.3 1008.0 0.0
19/03:30pm 34.7 25.9 -1.4 10 17.6 WNW 35 46 19 25 1008.5 1008.2 0.0
19/03:09pm 34.2 24.7 -0.4 11 17.1 NW 39 57 21 31 1008.7 1008.4 0.0
19/03:00pm 34.2 24.6 -1.7 10 17.4 NW 39 54 21 29 1008.8 1008.5 0.0
19/02:32pm 34.6 27.3 -0.1 11 17.3 NW 28 52 15 28 1009.2 1008.9 0.0
19/02:30pm 34.4 27.6 0.9 12 16.9 NW 26 39 14 21 1009.2 1008.9 0.0
19/02:07pm 33.5 25.6 2.4 14 16.0 N 33 52 18 28 1009.5 1009.2 0.0
19/02:00pm 33.4 26.4 4.2 16 15.5 N 30 41 16 22 1009.7 1009.4 0.0
19/01:51pm 33.0 25.7 4.7 17 15.1 N 32 50 17 27 1009.9 1009.7 0.0
19/01:30pm 33.3 26.3 4.1 16 15.4 N 30 41 16 22 1010.3 1010.1 0.0
19/01:00pm 31.8 25.6 6.1 20 13.9 NNE 28 35 15 19 1011.3 1011.0 0.0
19/12:30pm 30.2 23.6 6.1 22 12.9 N 30 41 16 22 1012.4 1012.1 0.0
19/12:00pm 28.9 21.8 5.7 23 12.3 N 32 43 17 23 1013.4 1013.2 0.0
19/11:30am 28.2 20.6 5.7 24 11.9 NNE 35 46 19 25 1014.0 1013.8 0.0
19/11:00am 27.7 20.7 5.9 25 11.5 N 32 43 17 23 1014.7 1014.5 0.0
19/10:30am 26.4 20.1 5.9 27 10.7 N 28 35 15 19 1015.6 1015.3 0.0
19/10:00am 25.0 18.3 5.7 29 10.0 N 30 37 16 20 1016.4 1016.1 0.0
19/09:30am 22.5 15.7 5.0 32 8.8 N 30 37 16 20 1016.7 1016.5 0.0
19/09:00am 21.1 14.2 4.6 34 8.1 N 30 41 16 22 1017.0 1016.8 0.0
19/08:30am 19.6 13.1 4.5 37 7.4 NNE 28 39 15 21 1017.1 1016.9 0.0
19/08:00am 18.0 10.6 4.2 40 6.6 NNE 32 37 17 20 1017.5 1017.3 0.0
19/07:30am 17.0 10.4 4.0 42 6.2 NNE 28 35 15 19 1017.9 1017.7 0.0
19/07:00am 15.8 9.8 3.6 44 5.7 NNE 24 30 13 16 1018.1 1017.9 0.0
19/06:30am 14.9 9.0 3.7 47 5.2 N 24 30 13 16 1018.1 1017.9 0.0
19/06:00am 14.4 9.4 3.5 48 5.0 NNE 19 24 10 13 1018.1 1017.9 0.0
19/05:30am 14.8 9.6 3.6 47 5.2 NNE 20 24 11 13 1018.2 1018.0 0.0
19/05:00am 14.6 9.6 3.7 48 5.0 NNE 19 22 10 12 1018.1 1017.9 0.0
19/04:30am 14.0 9.8 3.8 50 4.7 NNE 15 17 8 9 1018.2 1018.0 0.0
19/04:00am 15.5 11.3 3.6 45 5.5 NNE 15 20 8 11 1018.2 1018.0 0.0
19/03:30am 16.4 11.4 3.5 42 6.0 NNE 19 24 10 13 1018.1 1017.9 0.0
19/03:00am 17.2 11.2 3.5 40 6.4 NNE 24 30 13 16 1018.1 1017.9 0.0
19/02:30am 17.3 12.1 3.6 40 6.5 NNE 20 24 11 13 1018.3 1018.1 0.0
19/02:00am 16.4 11.8 3.5 42 6.0 NNE 17 20 9 11 1018.6 1018.4 0.0
19/01:30am 16.4 12.5 3.5 42 6.0 NE 13 17 7 9 1019.2 1018.9 0.0
19/01:00am 16.0 11.9 4.1 45 5.6 NE 15 20 8 11 1019.5 1019.2 0.0
19/12:30am 14.6 11.8 3.1 46 5.2 NNE 7 11 4 6 1019.7 1019.5 0.0
19/12:00am 15.6 13.0 3.4 44 5.6 E 6 17 3 9 1020.0 1019.8 0.0
 
Date/Time
WST
Temp
°C
App
Temp
°C
Dew
Point
°C
Rel
Hum
%
Delta-T
°C
Wind Press
QNH
hPa
Press
MSL
hPa
Rain since
9am
mm
Dir  Spd
km/h
Gust
km/h
Spd
kts
Gust
kts
18/11:30pm 16.9 10.9 3.6 41 6.2 N 24 30 13 16 1019.4 1019.1 0.0
18/11:00pm 14.8 10.7 4.2 49 4.9 NNE 15 19 8 10 1019.7 1019.5 0.0
18/10:30pm 15.4 11.0 4.5 48 5.2 NNE 17 20 9 11 1020.2 1020.0 0.0
18/10:00pm 13.8 10.0 4.1 52 4.5 N 13 15 7 8 1020.7 1020.5 0.0
18/09:30pm 14.4 11.3 3.5 48 5.0 NNE 9 9 5 5 1021.3 1021.1 0.0
18/09:00pm 13.5 12.1 3.3 50 4.6 CALM 0 0 0 0 1021.7 1021.5 0.0
18/08:30pm 12.9 11.3 2.7 50 4.5 CALM 0 0 0 0 1022.0 1021.8 0.0
18/08:00pm 13.4 11.8 2.6 48 4.8 CALM 0 0 0 0 1022.2 1022.0 0.0
18/07:30pm 15.1 11.9 3.0 44 5.5 ENE 9 11 5 6 1022.1 1021.9 0.0
18/07:00pm 15.9 12.6 2.7 41 6.0 ENE 9 9 5 5 1022.0 1021.8 0.0
18/06:30pm 17.1 14.2 2.7 38 6.7 E 7 9 4 5 1021.7 1021.5 0.0
18/06:00pm 20.5 17.3 2.8 31 8.4 NE 9 9 5 5 1021.5 1021.3 0.0
18/05:30pm 22.5 18.9 3.1 28 9.4 N 11 15 6 8 1021.5 1021.3 0.0
18/05:00pm 23.3 19.1 1.6 24 10.3 NNW 13 17 7 9 1021.6 1021.4 0.0
18/04:30pm 23.1 19.2 3.6 28 9.6 N 13 17 7 9 1021.5 1021.3 0.0
18/04:00pm 24.0 20.4 4.9 29 9.6 NNW 13 17 7 9 1021.5 1021.3 0.0
18/03:30pm 23.5 19.7 5.9 32 9.1 NNW 15 20 8 11 1021.3 1021.1 0.0
18/03:00pm 22.9 19.9 5.8 33 8.7 NNW 11 22 6 12 1021.6 1021.4 0.0
18/02:30pm 23.0 20.1 6.3 34 8.6 WNW 11 20 6 11 1021.8 1021.6 0.0
18/02:00pm 22.8 20.2 6.1 34 8.6 NNW 9 22 5 12 1022.1 1021.9 0.0
18/01:30pm 21.7 19.1 6.0 36 8.0 N 9 20 5 11 1022.4 1022.2 0.0

Other Formats:

Comma delimited format used in spreadsheet applications
http://www.bom.gov.au/fwo/IDW60801/IDW60801.95642.axf

JavaScript Object Notation format (JSON) in row-major order
http://www.bom.gov.au/fwo/IDW60801/IDW60801.95642.json